Weather History for Oxford, NC

Change the Weather History Date:

Thursday, May 30, 2013

  Actual Average (KTDF) Record (KTDF)
Temperature  
Mean Temperature 74 °F -  
Max Temperature 85 °F 80 °F 98 °F (2011)
Min Temperature 62 °F 58 °F 47 °F (1964)
Cooling Degree Days 8    
Growing Degree Days 24 (Base 50)    
Moisture  
Dew Point 61 °F    
Average Humidity 67    
Maximum Humidity 93    
Minimum Humidity 35    
Precipitation  
Precipitation 0.00 in - - ()
Sea Level Pressure  
Sea Level Pressure 30.23 in    
Wind  
Wind Speed 7 mph (SSW)    
Max Wind Speed 12 mph    
Max Gust Speed -    
Visibility 10 miles    
Events      
Averages and records for this station are not official NWS values.
T = Trace of Precipitation, MM = Missing Value Source: NWS Daily Summary

Daily Weather History Graph

Daily Weather History Graph

Search for Another Location

Airport:

Trip Planner

Search our weather history database for the weather conditions in past years. The results will help you decide how hot, cold, wet, or windy it might be!

Date:

Astronomy

May. 30, 2013 Rise Set
Actual Time 5:58 AM EDT 8:25 PM EDT
Civil Twilight 5:28 AM EDT 8:55 PM EDT
Nautical Twilight 4:51 AM EDT 9:32 PM EDT
Astronomical Twilight 4:11 AM EDT 10:12 PM EDT
Moon 12:31 AM EDT (5/30) 11:58 AM EDT (5/30)
Length of Visible Light 15h 26m
Length of Day
14h 26m
Waning Gibbous, 62% of the Moon is Illuminated
May 30
Waning Gibbous
May 31
Last Quarter
Jun 8
New
Jun 16
First Quarter
Jun 23
Full

Hourly Weather History & Observations

Time (EDT) Temp. Heat Index Dew Point Humidity Pressure Visibility Wind Dir Wind Speed Gust Speed Precip Events Conditions
12:15 AM 69.4 °F - 61.7 °F 76% 30.22 in 10.0 mi SSW 8.1 mph - N/A   Clear
12:35 AM 69.3 °F - 61.5 °F 76% 30.22 in 10.0 mi SSW 9.2 mph - N/A   Clear
12:55 AM 68.4 °F - 61.3 °F 78% 30.22 in 10.0 mi SSW 6.9 mph - N/A   Clear
1:15 AM 67.6 °F - 61.3 °F 80% 30.22 in 10.0 mi SSW 6.9 mph - N/A   Clear
1:35 AM 67.3 °F - 61.2 °F 81% 30.22 in 10.0 mi SSW 6.9 mph - N/A   Clear
1:55 AM 67.1 °F - 61.3 °F 82% 30.22 in 10.0 mi SSW 6.9 mph - N/A   Clear
2:15 AM 66.6 °F - 61.2 °F 83% 30.22 in 10.0 mi SSW 6.9 mph - N/A   Clear
2:35 AM 66.4 °F - 61.0 °F 83% 30.22 in 10.0 mi SSW 6.9 mph - N/A   Clear
2:55 AM 66.0 °F - 61.0 °F 84% 30.22 in 10.0 mi SSW 5.8 mph - N/A   Clear
3:15 AM 64.8 °F - 61.0 °F 88% 30.23 in 10.0 mi SW 5.8 mph - N/A   Clear
3:35 AM 65.1 °F - 61.2 °F 87% 30.23 in 10.0 mi SSW 6.9 mph - N/A   Clear
3:55 AM 64.8 °F - 61.0 °F 88% 30.23 in 10.0 mi SSW 5.8 mph - N/A   Clear
4:15 AM 64.8 °F - 61.2 °F 88% 30.23 in 10.0 mi SSW 6.9 mph - N/A   Clear
4:35 AM 64.4 °F - 61.0 °F 89% 30.23 in 10.0 mi SSW 5.8 mph - N/A   Clear
4:55 AM 63.7 °F - 60.8 °F 90% 30.23 in 10.0 mi South 4.6 mph - N/A   Clear
5:15 AM 63.5 °F - 60.8 °F 91% 30.24 in 10.0 mi SSW 5.8 mph - N/A   Clear
5:35 AM 62.6 °F - 60.1 °F 91% 30.24 in 10.0 mi SSW 5.8 mph - N/A   Clear
5:55 AM 62.6 °F - 60.4 °F 93% 30.25 in 10.0 mi SW 5.8 mph - N/A   Clear
6:15 AM 62.8 °F - 60.8 °F 93% 30.26 in 7.0 mi SW 5.8 mph - N/A   Clear
6:35 AM 63.5 °F - 61.3 °F 93% 30.26 in 7.0 mi SW 5.8 mph - N/A   Clear
6:55 AM 64.6 °F - 62.1 °F 92% 30.27 in 7.0 mi SW 5.8 mph - N/A   Clear
7:15 AM 65.7 °F - 62.6 °F 90% 30.27 in 10.0 mi SW 5.8 mph - N/A   Clear
7:35 AM 66.7 °F - 62.8 °F 87% 30.27 in 10.0 mi SSW 6.9 mph - N/A   Clear
7:55 AM 68.0 °F - 63.1 °F 84% 30.27 in 10.0 mi SSW 8.1 mph - N/A   Clear
8:15 AM 68.9 °F - 63.7 °F 83% 30.27 in 10.0 mi SSW 8.1 mph - N/A   Clear
8:35 AM 70.7 °F - 63.9 °F 79% 30.28 in 10.0 mi SW 9.2 mph - N/A   Clear
8:55 AM 72.1 °F - 63.3 °F 74% 30.28 in 10.0 mi SSW 10.4 mph - N/A   Clear
9:15 AM 73.4 °F - 62.2 °F 68% 30.28 in 10.0 mi WSW 11.5 mph - N/A   Clear
9:35 AM 74.3 °F - 62.1 °F 65% 30.28 in 10.0 mi SW 10.4 mph - N/A   Clear
9:55 AM 75.6 °F - 62.6 °F 64% 30.28 in 10.0 mi SSW 10.4 mph - N/A   Clear
10:15 AM 77.0 °F - 62.4 °F 61% 30.28 in 7.0 mi SW 10.4 mph - N/A   Clear
10:35 AM 77.9 °F - 62.6 °F 59% 30.28 in 10.0 mi SW 6.9 mph - N/A   Clear
10:55 AM 77.9 °F - 63.1 °F 60% 30.28 in 10.0 mi SW 4.6 mph - N/A   Clear
11:15 AM 79.2 °F - 62.8 °F 57% 30.29 in 10.0 mi WSW 8.1 mph - N/A   Clear
11:35 AM 80.1 °F 81.4 °F 62.8 °F 55% 30.28 in 10.0 mi SW 9.2 mph - N/A   Clear
11:55 AM 80.1 °F 81.5 °F 63.3 °F 56% 30.28 in 10.0 mi SW 5.8 mph - N/A   Scattered Clouds
12:15 PM 81.1 °F 82.5 °F 63.3 °F 55% 30.27 in 10.0 mi WSW 8.1 mph - N/A   Mostly Cloudy
12:35 PM 80.2 °F 81.6 °F 63.1 °F 56% 30.27 in 10.0 mi SSW 6.9 mph - N/A   Mostly Cloudy
12:55 PM 81.7 °F 82.9 °F 62.8 °F 53% 30.26 in 10.0 mi SW 5.8 mph - N/A   Scattered Clouds
1:15 PM 81.7 °F 82.9 °F 62.8 °F 53% 30.26 in 10.0 mi WSW 4.6 mph - N/A   Scattered Clouds
1:35 PM 82.6 °F 83.4 °F 62.2 °F 50% 30.25 in 10.0 mi SSW 8.1 mph - N/A   Mostly Cloudy
1:55 PM 83.1 °F 83.9 °F 61.9 °F 49% 30.24 in 10.0 mi South 4.6 mph - N/A   Scattered Clouds
2:15 PM 83.3 °F 83.9 °F 61.5 °F 48% 30.24 in 10.0 mi SSW 6.9 mph - N/A   Scattered Clouds
2:35 PM 84.0 °F 84.4 °F 61.0 °F 46% 30.23 in 10.0 mi South 8.1 mph - N/A   Scattered Clouds
2:55 PM 83.5 °F 83.9 °F 61.5 °F 47% 30.23 in 10.0 mi South 8.1 mph - N/A   Scattered Clouds
3:15 PM 84.9 °F 85.0 °F 60.6 °F 44% 30.22 in 10.0 mi SSW 4.6 mph - N/A   Scattered Clouds
3:35 PM 84.4 °F 84.2 °F 59.7 °F 43% 30.22 in 10.0 mi SSE 10.4 mph - N/A   Clear
3:55 PM 84.6 °F 84.4 °F 59.7 °F 43% 30.21 in 10.0 mi South 8.1 mph - N/A   Clear
4:15 PM 85.1 °F 84.4 °F 58.5 °F 40% 30.21 in 10.0 mi South 9.2 mph - N/A   Clear
4:35 PM 84.6 °F 83.7 °F 57.2 °F 39% 30.21 in 10.0 mi SSW 5.8 mph - N/A   Clear
4:55 PM 85.1 °F 83.9 °F 55.9 °F 37% 30.21 in 10.0 mi South 8.1 mph - N/A   Clear
5:15 PM 85.3 °F 84.1 °F 56.5 °F 37% 30.20 in 10.0 mi SSW 8.1 mph - N/A   Clear
5:35 PM 84.9 °F 83.6 °F 55.2 °F 36% 30.20 in 10.0 mi South 8.1 mph - N/A   Clear
5:55 PM 84.6 °F 83.1 °F 54.1 °F 35% 30.20 in 10.0 mi South 6.9 mph - N/A   Clear
6:15 PM 84.2 °F 83.0 °F 55.6 °F 37% 30.20 in 10.0 mi South 4.6 mph - N/A   Clear
6:35 PM 83.7 °F 83.0 °F 57.2 °F 40% 30.20 in 10.0 mi SSW 5.8 mph - N/A   Clear
6:55 PM 83.3 °F 82.9 °F 58.1 °F 42% 30.20 in 10.0 mi SSW 5.8 mph - N/A   Clear
7:15 PM 82.4 °F 82.3 °F 58.6 °F 44% 30.20 in 10.0 mi South 4.6 mph - N/A   Clear
7:35 PM 81.5 °F 81.8 °F 59.7 °F 47% 30.21 in 10.0 mi South 3.5 mph - N/A   Clear
7:55 PM 79.3 °F - 61.2 °F 54% 30.20 in 10.0 mi Calm Calm - N/A   Clear
8:15 PM 75.6 °F - 61.9 °F 62% 30.20 in 10.0 mi Calm Calm - N/A   Clear
8:35 PM 75.4 °F - 62.8 °F 65% 30.20 in 10.0 mi Calm Calm - N/A   Clear
8:55 PM 73.8 °F - 63.3 °F 70% 30.19 in 10.0 mi Calm Calm - N/A   Clear
9:15 PM 71.4 °F - 63.7 °F 76% 30.20 in 10.0 mi Calm Calm - N/A   Clear
9:35 PM 71.8 °F - 64.4 °F 77% 30.20 in 10.0 mi Calm Calm - N/A   Clear
9:55 PM 71.1 °F - 63.7 °F 77% 30.21 in 10.0 mi Calm Calm - N/A   Clear
10:15 PM 71.2 °F - 61.9 °F 72% 30.22 in 10.0 mi Calm Calm - N/A   Clear
10:35 PM 70.7 °F - 63.0 °F 76% 30.21 in 10.0 mi Calm Calm - N/A   Clear
10:55 PM 70.7 °F - 62.4 °F 75% 30.21 in 10.0 mi Calm Calm - N/A   Clear
11:15 PM 68.7 °F - 63.5 °F 83% 30.21 in 10.0 mi Calm Calm - N/A   Clear
11:35 PM 70.7 °F - 61.5 °F 73% 30.21 in 10.0 mi Calm Calm - N/A   Clear
11:55 PM 71.4 °F - 61.5 °F 71% 30.21 in 10.0 mi SSE 5.8 mph - N/A   Clear